To NAV CANADA Home Page Login to a new session Search on AWWS site Feedback and Comments Disclaimer Vers la page française équivalente Tips FAQ What's new on the site To the Forecasts and Observations / NOTAM section To "File a Flight Plan" website Publications and other links Update of the User's profile FIC Telephone Numbers My Weather Data Folder Route Weather Data Regional Weather Data Local Weather Data To the Forecasts and Observations / NOTAM section
Request Generated 09/04/2015 at 18:43:07 UTC . Weather information available at that time is displayed.

METAR/TAF

FREDERICTON/FREDERICTON INTL/NB    (show WxCam)

METAR CYFC 041800Z AUTO 28003KT 220V340 9SM SCT055 21/07 A3019 RMK
SLP222 DENSITY ALT 500FT=
METAR CYFC 041700Z AUTO VRB03KT 9SM FEW050 21/07 A3019 RMK SLP222
DENSITY ALT 400FT=
METAR CYFC 041600Z AUTO VRB03KT 9SM BKN047 20/07 A3019 RMK SLP225
DENSITY ALT 400FT=

TAF CYFC 041738Z 0418/0506 36005KT P6SM FEW050
BECMG 0422/0424 VRB03KT
RMK FCST BASED ON AUTO OBS. NXT FCST BY 050000Z=
Your time UTC time
Weather data provided by Environment Canada and NAV CANADA